sim
Sign-in with your pilot id or email,
or register
Callsign
Passwort

Schedule Details

Flight Number: EWG232
Departure: Munich Airport (EDDM) at 09:40
Arrival: Havana Jose Marti International Airport (MUHA) at 21:25
Route: Eurowings Passenger Schedule. Enter filed route here before submitting Pirep.

Weather Information
Getting current METAR information for EDDM 241150Z 18005KT 140V210 9999 FEW033 21/14 Q1010 NOSIG
Getting current METAR information for MUHA 241055Z 06002KT 9000 FEW025 23/23 Q1012

Schedule Frequency

Route Map